Página principal
METAR-TAF:

METAR-TAF

Aeroportos :

Aeroporto Internacional de Chengdu Shuangliu

Chengdu, China

latitude: 30-40N, longitude: 104-01E, altura: 508 m

Observação actual do tempo

O boletim foi feito há 33 minutos, às 09:00 UTC
Vento 4 kt com direcção variável com rajadas de 14 kt
Temperatura 30°C
Humidade 29%
Pressão 1013 hPa
Visibilidade 10 km ou mais
sem nuvens abaixo de 1500 metros e sem cumulonimbus

METAR: ZUUU 270900Z VRB02G07MPS CAVOK 30/10 Q1013 NOSIG

Hora: 17:33 (09:33 UTC)

Previsão

O boletim foi feito há 7 horas e 23 minutos, às 02:10 UTC
Previsão válida de 27 às 06 UTC a 28 às 06 UTC
Vento 6 kt de su-sudoeste
Visibilidade: 5000 m
Nuvens dispersasa uma altura de 5000 ft
neblina

TAF: ZUUU 270210Z 2706/2806 20003MPS 5000 BR SCT050 TX31/2707Z TN18/2723Z

Observações e previsões do tempo de mais de 4000 aeroportos (mensagens METAR e TAF).

As estações disponíveis são os pontos amarelos e vermelhos sobre o mapa.

Mova o rato sobre o mapa para ver o nome da estação.

Depois clique no ponto para visualizar as observações e previsões meteorológicas.

Para alterar o mapa : clique nos botões verdes com uma cruz preta para aumentar o zoom; no botão verde com uma pitada de zoom; ou nas setas verdes para mapas adjacentes.


METAR-TAF: